Pagina principală
METAR-TAF:

METAR-TAF

Aeroporturi :

Normanton, Australia

Latitudine: 17-41-06S, longitudine: 141-04-12E, elevație: 22 m

Observații meteo curente

Raportul a fost făcut în urmă cu 45 de minute, la 10:00 UTC
Vânt 6 kt de la Vest/Sud-vest
Temperatură 19°C
Umiditate 46%
Presiune 1017 hPa
Vizibilitate de 10 km sau mai mult

METAR: YNTN 261000Z AUTO 25006KT 9999 // NCD 19/07 Q1017

Ora: 20:45 (10:45 UTC)


TAF: lipsă

Observații și prognoze meteo pentru peste 4.000 de aeroporturi (rapoarte METAR și TAF).

Stațiile disponibile sunt reprezentate pe hartă prin puncte galbene și roșii.

Țineți indicatorul mouse-ului pe punctul dorit pentru a vedea denumirea stației.

Apoi, faceți clic pentru a vedea observațiile și prognozele meteorologice.

Pentru a schimba harta: Pentru mărire, faceți clic pe butoanele verzi cu cruce neagră; pentru micșorare, pe butonul verde cu o liniuță; pentru hărți învecinate, pe săgețile verzi.


METAR-TAF: